sensor_id;sensor_type;location;lat;lon;timestamp;P1;durP1;ratioP1;P2;durP2;ratioP2
35909;SDS011;22004;49.120;-0.200;2022-12-18T00:01:26;41.05;;;23.02;;
35909;SDS011;22004;49.120;-0.200;2022-12-18T00:03:53;38.40;;;21.52;;
35909;SDS011;22004;49.120;-0.200;2022-12-18T00:06:20;33.35;;;20.90;;
35909;SDS011;22004;49.120;-0.200;2022-12-18T00:08:46;38.22;;;21.02;;
35909;SDS011;22004;49.120;-0.200;2022-12-18T00:11:15;34.47;;;20.67;;
35909;SDS011;22004;49.120;-0.200;2022-12-18T00:13:42;39.00;;;21.35;;
35909;SDS011;22004;49.120;-0.200;2022-12-18T00:16:09;54.58;;;26.67;;
35909;SDS011;22004;49.120;-0.200;2022-12-18T00:18:37;57.92;;;27.45;;
35909;SDS011;22004;49.120;-0.200;2022-12-18T00:21:04;50.63;;;25.33;;
35909;SDS011;22004;49.120;-0.200;2022-12-18T00:23:31;55.53;;;26.48;;
35909;SDS011;22004;49.120;-0.200;2022-12-18T00:26:05;54.25;;;25.70;;
35909;SDS011;22004;49.120;-0.200;2022-12-18T00:28:32;53.75;;;25.50;;
35909;SDS011;22004;49.120;-0.200;2022-12-18T00:30:59;77.50;;;33.92;;
35909;SDS011;22004;49.120;-0.200;2022-12-18T00:33:26;74.10;;;35.47;;
35909;SDS011;22004;49.120;-0.200;2022-12-18T00:35:52;51.80;;;27.95;;
35909;SDS011;22004;49.120;-0.200;2022-12-18T00:38:17;53.13;;;28.40;;
35909;SDS011;22004;49.120;-0.200;2022-12-18T00:40:42;47.45;;;25.83;;
35909;SDS011;22004;49.120;-0.200;2022-12-18T00:43:08;52.78;;;25.60;;
35909;SDS011;22004;49.120;-0.200;2022-12-18T00:45:34;61.05;;;29.10;;
35909;SDS011;22004;49.120;-0.200;2022-12-18T00:47:59;53.70;;;27.33;;
35909;SDS011;22004;49.120;-0.200;2022-12-18T00:50:25;46.55;;;24.27;;
35909;SDS011;22004;49.120;-0.200;2022-12-18T00:52:50;41.50;;;23.35;;
35909;SDS011;22004;49.120;-0.200;2022-12-18T00:55:16;43.75;;;23.25;;
35909;SDS011;22004;49.120;-0.200;2022-12-18T00:57:42;42.67;;;23.60;;
35909;SDS011;22004;49.120;-0.200;2022-12-18T01:00:08;41.15;;;22.30;;
35909;SDS011;22004;49.120;-0.200;2022-12-18T01:02:39;41.42;;;22.30;;
35909;SDS011;22004;49.120;-0.200;2022-12-18T01:05:05;40.58;;;21.95;;
35909;SDS011;22004;49.120;-0.200;2022-12-18T01:07:31;45.47;;;23.98;;
35909;SDS011;22004;49.120;-0.200;2022-12-18T01:09:56;46.78;;;24.02;;
35909;SDS011;22004;49.120;-0.200;2022-12-18T01:12:21;45.45;;;23.15;;
35909;SDS011;22004;49.120;-0.200;2022-12-18T01:14:47;42.45;;;23.02;;
35909;SDS011;22004;49.120;-0.200;2022-12-18T01:17:12;42.17;;;24.10;;
35909;SDS011;22004;49.120;-0.200;2022-12-18T01:19:37;42.70;;;22.98;;
35909;SDS011;22004;49.120;-0.200;2022-12-18T01:22:03;35.50;;;19.77;;
35909;SDS011;22004;49.120;-0.200;2022-12-18T01:24:28;36.30;;;21.50;;
35909;SDS011;22004;49.120;-0.200;2022-12-18T01:26:53;37.90;;;20.05;;
35909;SDS011;22004;49.120;-0.200;2022-12-18T01:29:19;45.92;;;23.58;;
35909;SDS011;22004;49.120;-0.200;2022-12-18T01:31:44;34.72;;;20.33;;
35909;SDS011;22004;49.120;-0.200;2022-12-18T01:34:09;42.40;;;22.10;;
35909;SDS011;22004;49.120;-0.200;2022-12-18T01:36:36;35.67;;;20.13;;
35909;SDS011;22004;49.120;-0.200;2022-12-18T01:39:03;34.55;;;18.83;;
35909;SDS011;22004;49.120;-0.200;2022-12-18T01:41:35;32.20;;;18.77;;
35909;SDS011;22004;49.120;-0.200;2022-12-18T01:47:20;36.28;;;19.95;;
35909;SDS011;22004;49.120;-0.200;2022-12-18T01:49:52;34.20;;;19.05;;
35909;SDS011;22004;49.120;-0.200;2022-12-18T01:52:19;32.35;;;18.98;;
35909;SDS011;22004;49.120;-0.200;2022-12-18T01:54:45;33.20;;;18.83;;
35909;SDS011;22004;49.120;-0.200;2022-12-18T01:57:12;35.30;;;20.35;;
35909;SDS011;22004;49.120;-0.200;2022-12-18T01:59:38;31.40;;;17.50;;
35909;SDS011;22004;49.120;-0.200;2022-12-18T02:02:05;33.17;;;18.83;;
35909;SDS011;22004;49.120;-0.200;2022-12-18T02:04:32;32.92;;;18.55;;
35909;SDS011;22004;49.120;-0.200;2022-12-18T02:09:40;31.65;;;18.33;;
35909;SDS011;22004;49.120;-0.200;2022-12-18T02:12:25;34.00;;;20.17;;
35909;SDS011;22004;49.120;-0.200;2022-12-18T02:15:00;34.05;;;19.05;;
35909;SDS011;22004;49.120;-0.200;2022-12-18T02:17:36;30.65;;;18.88;;
35909;SDS011;22004;49.120;-0.200;2022-12-18T02:20:17;31.60;;;18.25;;
35909;SDS011;22004;49.120;-0.200;2022-12-18T02:28:17;33.50;;;19.45;;
35909;SDS011;22004;49.120;-0.200;2022-12-18T02:30:45;29.45;;;17.67;;
35909;SDS011;22004;49.120;-0.200;2022-12-18T02:33:14;32.22;;;17.60;;
35909;SDS011;22004;49.120;-0.200;2022-12-18T02:35:40;33.50;;;18.33;;
35909;SDS011;22004;49.120;-0.200;2022-12-18T02:38:08;31.90;;;18.25;;
35909;SDS011;22004;49.120;-0.200;2022-12-18T02:40:34;34.58;;;18.85;;
35909;SDS011;22004;49.120;-0.200;2022-12-18T02:43:02;29.63;;;18.60;;
35909;SDS011;22004;49.120;-0.200;2022-12-18T02:45:32;29.38;;;16.73;;
35909;SDS011;22004;49.120;-0.200;2022-12-18T02:47:57;26.90;;;16.83;;
35909;SDS011;22004;49.120;-0.200;2022-12-18T02:50:26;29.48;;;17.05;;
35909;SDS011;22004;49.120;-0.200;2022-12-18T02:53:17;33.38;;;18.33;;
35909;SDS011;22004;49.120;-0.200;2022-12-18T03:03:33;29.30;;;16.55;;
35909;SDS011;22004;49.120;-0.200;2022-12-18T03:06:23;28.90;;;16.02;;
35909;SDS011;22004;49.120;-0.200;2022-12-18T03:08:54;31.33;;;18.35;;
35909;SDS011;22004;49.120;-0.200;2022-12-18T03:11:25;28.77;;;16.90;;
35909;SDS011;22004;49.120;-0.200;2022-12-18T03:14:11;29.35;;;16.90;;
35909;SDS011;22004;49.120;-0.200;2022-12-18T03:16:41;31.23;;;17.40;;
35909;SDS011;22004;49.120;-0.200;2022-12-18T03:19:14;27.50;;;15.90;;
35909;SDS011;22004;49.120;-0.200;2022-12-18T03:21:44;33.60;;;17.20;;
35909;SDS011;22004;49.120;-0.200;2022-12-18T03:24:15;31.45;;;17.15;;
35909;SDS011;22004;49.120;-0.200;2022-12-18T03:26:43;28.27;;;15.80;;
35909;SDS011;22004;49.120;-0.200;2022-12-18T03:29:18;28.60;;;16.65;;
35909;SDS011;22004;49.120;-0.200;2022-12-18T03:31:51;28.65;;;17.00;;
35909;SDS011;22004;49.120;-0.200;2022-12-18T03:34:26;29.98;;;16.80;;
35909;SDS011;22004;49.120;-0.200;2022-12-18T03:36:55;30.60;;;17.85;;
35909;SDS011;22004;49.120;-0.200;2022-12-18T03:39:21;32.17;;;19.52;;
35909;SDS011;22004;49.120;-0.200;2022-12-18T03:41:49;30.95;;;17.48;;
35909;SDS011;22004;49.120;-0.200;2022-12-18T03:46:58;29.23;;;16.70;;
35909;SDS011;22004;49.120;-0.200;2022-12-18T03:49:38;28.77;;;15.98;;
35909;SDS011;22004;49.120;-0.200;2022-12-18T03:52:21;33.10;;;18.92;;
35909;SDS011;22004;49.120;-0.200;2022-12-18T03:54:47;34.20;;;18.58;;
35909;SDS011;22004;49.120;-0.200;2022-12-18T03:57:14;36.92;;;20.58;;
35909;SDS011;22004;49.120;-0.200;2022-12-18T03:59:43;30.52;;;16.38;;
35909;SDS011;22004;49.120;-0.200;2022-12-18T04:02:12;33.45;;;18.67;;
35909;SDS011;22004;49.120;-0.200;2022-12-18T04:04:40;31.10;;;17.45;;
35909;SDS011;22004;49.120;-0.200;2022-12-18T04:07:08;33.10;;;18.20;;
35909;SDS011;22004;49.120;-0.200;2022-12-18T04:09:34;33.40;;;19.50;;
35909;SDS011;22004;49.120;-0.200;2022-12-18T04:12:01;28.90;;;15.80;;
35909;SDS011;22004;49.120;-0.200;2022-12-18T04:14:27;30.80;;;16.98;;
35909;SDS011;22004;49.120;-0.200;2022-12-18T04:16:52;29.40;;;17.00;;
35909;SDS011;22004;49.120;-0.200;2022-12-18T04:19:18;31.98;;;17.75;;
35909;SDS011;22004;49.120;-0.200;2022-12-18T04:21:43;37.13;;;19.85;;
35909;SDS011;22004;49.120;-0.200;2022-12-18T04:24:08;31.33;;;18.40;;
35909;SDS011;22004;49.120;-0.200;2022-12-18T04:26:34;30.95;;;18.58;;
35909;SDS011;22004;49.120;-0.200;2022-12-18T04:28:59;33.83;;;17.67;;
35909;SDS011;22004;49.120;-0.200;2022-12-18T04:31:25;27.85;;;15.70;;
35909;SDS011;22004;49.120;-0.200;2022-12-18T04:33:51;28.35;;;16.48;;
35909;SDS011;22004;49.120;-0.200;2022-12-18T04:36:16;30.05;;;16.13;;
35909;SDS011;22004;49.120;-0.200;2022-12-18T04:38:41;28.70;;;16.55;;
35909;SDS011;22004;49.120;-0.200;2022-12-18T04:41:07;31.90;;;17.50;;
35909;SDS011;22004;49.120;-0.200;2022-12-18T04:43:32;26.73;;;15.38;;
35909;SDS011;22004;49.120;-0.200;2022-12-18T04:46:04;34.70;;;20.65;;
35909;SDS011;22004;49.120;-0.200;2022-12-18T04:48:31;29.30;;;17.40;;
35909;SDS011;22004;49.120;-0.200;2022-12-18T04:50:56;37.90;;;21.05;;
35909;SDS011;22004;49.120;-0.200;2022-12-18T04:53:22;29.90;;;17.17;;
35909;SDS011;22004;49.120;-0.200;2022-12-18T04:55:47;30.02;;;16.73;;
35909;SDS011;22004;49.120;-0.200;2022-12-18T04:58:13;37.08;;;20.17;;
35909;SDS011;22004;49.120;-0.200;2022-12-18T05:00:38;33.25;;;20.17;;
35909;SDS011;22004;49.120;-0.200;2022-12-18T05:03:03;34.67;;;20.13;;
35909;SDS011;22004;49.120;-0.200;2022-12-18T05:05:29;32.28;;;18.25;;
35909;SDS011;22004;49.120;-0.200;2022-12-18T05:07:54;29.23;;;18.77;;
35909;SDS011;22004;49.120;-0.200;2022-12-18T05:10:19;31.02;;;17.73;;
35909;SDS011;22004;49.120;-0.200;2022-12-18T05:12:45;29.35;;;16.58;;
35909;SDS011;22004;49.120;-0.200;2022-12-18T05:15:31;33.63;;;19.85;;
35909;SDS011;22004;49.120;-0.200;2022-12-18T05:17:58;32.53;;;17.17;;
35909;SDS011;22004;49.120;-0.200;2022-12-18T05:20:24;32.80;;;19.02;;
35909;SDS011;22004;49.120;-0.200;2022-12-18T05:22:51;39.75;;;21.30;;
35909;SDS011;22004;49.120;-0.200;2022-12-18T05:25:16;31.85;;;17.30;;
35909;SDS011;22004;49.120;-0.200;2022-12-18T05:27:42;35.30;;;19.88;;
35909;SDS011;22004;49.120;-0.200;2022-12-18T05:30:08;31.75;;;17.40;;
35909;SDS011;22004;49.120;-0.200;2022-12-18T05:32:34;30.90;;;18.20;;
35909;SDS011;22004;49.120;-0.200;2022-12-18T05:34:59;33.47;;;18.20;;
35909;SDS011;22004;49.120;-0.200;2022-12-18T05:37:25;38.05;;;22.90;;
35909;SDS011;22004;49.120;-0.200;2022-12-18T05:39:50;35.90;;;20.10;;
35909;SDS011;22004;49.120;-0.200;2022-12-18T05:42:16;30.17;;;18.00;;
35909;SDS011;22004;49.120;-0.200;2022-12-18T05:44:41;31.00;;;17.08;;
35909;SDS011;22004;49.120;-0.200;2022-12-18T05:47:06;37.55;;;19.92;;
35909;SDS011;22004;49.120;-0.200;2022-12-18T05:49:31;36.33;;;21.40;;
35909;SDS011;22004;49.120;-0.200;2022-12-18T05:51:57;28.95;;;16.73;;
35909;SDS011;22004;49.120;-0.200;2022-12-18T05:54:22;29.27;;;15.70;;
35909;SDS011;22004;49.120;-0.200;2022-12-18T05:56:48;30.27;;;18.15;;
35909;SDS011;22004;49.120;-0.200;2022-12-18T05:59:13;28.70;;;15.40;;
35909;SDS011;22004;49.120;-0.200;2022-12-18T06:01:38;29.85;;;16.95;;
35909;SDS011;22004;49.120;-0.200;2022-12-18T06:04:04;26.98;;;16.48;;
35909;SDS011;22004;49.120;-0.200;2022-12-18T06:06:29;27.92;;;15.85;;
35909;SDS011;22004;49.120;-0.200;2022-12-18T06:08:56;31.42;;;16.73;;
35909;SDS011;22004;49.120;-0.200;2022-12-18T06:11:25;29.98;;;17.05;;
35909;SDS011;22004;49.120;-0.200;2022-12-18T06:13:52;29.65;;;16.85;;
35909;SDS011;22004;49.120;-0.200;2022-12-18T06:16:18;29.38;;;17.33;;
35909;SDS011;22004;49.120;-0.200;2022-12-18T06:18:44;28.25;;;16.08;;
35909;SDS011;22004;49.120;-0.200;2022-12-18T06:21:09;28.83;;;16.90;;
35909;SDS011;22004;49.120;-0.200;2022-12-18T06:23:34;27.27;;;16.48;;
35909;SDS011;22004;49.120;-0.200;2022-12-18T06:26:07;30.50;;;16.95;;
35909;SDS011;22004;49.120;-0.200;2022-12-18T06:28:34;33.38;;;18.10;;
35909;SDS011;22004;49.120;-0.200;2022-12-18T06:31:00;31.92;;;17.80;;
35909;SDS011;22004;49.120;-0.200;2022-12-18T06:33:28;31.65;;;17.80;;
35909;SDS011;22004;49.120;-0.200;2022-12-18T06:35:58;32.85;;;19.00;;
35909;SDS011;22004;49.120;-0.200;2022-12-18T06:38:35;32.67;;;18.38;;
35909;SDS011;22004;49.120;-0.200;2022-12-18T06:41:11;32.35;;;18.63;;
35909;SDS011;22004;49.120;-0.200;2022-12-18T06:43:38;33.03;;;18.67;;
35909;SDS011;22004;49.120;-0.200;2022-12-18T06:46:04;29.05;;;15.70;;
35909;SDS011;22004;49.120;-0.200;2022-12-18T06:48:30;33.83;;;19.10;;
35909;SDS011;22004;49.120;-0.200;2022-12-18T06:50:56;33.92;;;19.90;;
35909;SDS011;22004;49.120;-0.200;2022-12-18T06:53:22;35.97;;;20.90;;
35909;SDS011;22004;49.120;-0.200;2022-12-18T06:55:48;30.98;;;18.58;;
35909;SDS011;22004;49.120;-0.200;2022-12-18T06:58:13;30.15;;;18.92;;
35909;SDS011;22004;49.120;-0.200;2022-12-18T07:00:39;28.95;;;15.88;;
35909;SDS011;22004;49.120;-0.200;2022-12-18T07:03:04;28.35;;;16.45;;
35909;SDS011;22004;49.120;-0.200;2022-12-18T07:05:29;32.47;;;18.70;;
35909;SDS011;22004;49.120;-0.200;2022-12-18T07:07:55;33.75;;;18.42;;
35909;SDS011;22004;49.120;-0.200;2022-12-18T07:10:20;32.53;;;18.70;;
35909;SDS011;22004;49.120;-0.200;2022-12-18T07:12:46;29.60;;;16.65;;
35909;SDS011;22004;49.120;-0.200;2022-12-18T07:15:11;33.78;;;18.33;;
35909;SDS011;22004;49.120;-0.200;2022-12-18T07:17:37;33.13;;;18.20;;
35909;SDS011;22004;49.120;-0.200;2022-12-18T07:20:03;29.73;;;17.08;;
35909;SDS011;22004;49.120;-0.200;2022-12-18T07:22:28;28.67;;;16.98;;
35909;SDS011;22004;49.120;-0.200;2022-12-18T07:24:54;26.52;;;16.10;;
35909;SDS011;22004;49.120;-0.200;2022-12-18T07:27:20;30.02;;;17.20;;
35909;SDS011;22004;49.120;-0.200;2022-12-18T07:29:45;34.95;;;19.70;;
35909;SDS011;22004;49.120;-0.200;2022-12-18T07:32:11;31.98;;;16.88;;
35909;SDS011;22004;49.120;-0.200;2022-12-18T07:34:36;32.80;;;18.77;;
35909;SDS011;22004;49.120;-0.200;2022-12-18T07:37:01;29.13;;;16.63;;
35909;SDS011;22004;49.120;-0.200;2022-12-18T07:39:27;28.20;;;17.52;;
35909;SDS011;22004;49.120;-0.200;2022-12-18T07:41:52;29.33;;;17.67;;
35909;SDS011;22004;49.120;-0.200;2022-12-18T07:44:36;32.95;;;17.48;;
35909;SDS011;22004;49.120;-0.200;2022-12-18T07:47:02;30.25;;;17.88;;
35909;SDS011;22004;49.120;-0.200;2022-12-18T07:49:27;32.30;;;17.00;;
35909;SDS011;22004;49.120;-0.200;2022-12-18T07:51:54;30.73;;;17.25;;
35909;SDS011;22004;49.120;-0.200;2022-12-18T07:54:20;28.90;;;17.00;;
35909;SDS011;22004;49.120;-0.200;2022-12-18T07:56:45;31.48;;;17.77;;
35909;SDS011;22004;49.120;-0.200;2022-12-18T07:59:10;30.33;;;16.50;;
35909;SDS011;22004;49.120;-0.200;2022-12-18T08:01:36;29.85;;;16.58;;
35909;SDS011;22004;49.120;-0.200;2022-12-18T08:04:01;28.08;;;16.80;;
35909;SDS011;22004;49.120;-0.200;2022-12-18T08:06:26;32.22;;;18.08;;
35909;SDS011;22004;49.120;-0.200;2022-12-18T08:08:52;27.23;;;15.95;;
35909;SDS011;22004;49.120;-0.200;2022-12-18T08:11:18;31.52;;;16.95;;
35909;SDS011;22004;49.120;-0.200;2022-12-18T08:13:44;33.33;;;18.70;;
35909;SDS011;22004;49.120;-0.200;2022-12-18T08:16:09;29.02;;;17.75;;
35909;SDS011;22004;49.120;-0.200;2022-12-18T08:18:35;28.65;;;16.60;;
35909;SDS011;22004;49.120;-0.200;2022-12-18T08:21:11;28.80;;;17.17;;
35909;SDS011;22004;49.120;-0.200;2022-12-18T08:23:38;28.90;;;16.77;;
35909;SDS011;22004;49.120;-0.200;2022-12-18T08:26:05;31.73;;;17.65;;
35909;SDS011;22004;49.120;-0.200;2022-12-18T08:28:30;31.48;;;16.75;;
35909;SDS011;22004;49.120;-0.200;2022-12-18T08:30:55;32.25;;;17.50;;
35909;SDS011;22004;49.120;-0.200;2022-12-18T08:33:21;32.70;;;18.15;;
35909;SDS011;22004;49.120;-0.200;2022-12-18T08:35:46;30.58;;;16.58;;
35909;SDS011;22004;49.120;-0.200;2022-12-18T08:38:11;36.38;;;19.98;;
35909;SDS011;22004;49.120;-0.200;2022-12-18T08:40:37;32.55;;;17.35;;
35909;SDS011;22004;49.120;-0.200;2022-12-18T08:43:02;36.67;;;19.80;;
35909;SDS011;22004;49.120;-0.200;2022-12-18T08:45:46;29.95;;;17.13;;
35909;SDS011;22004;49.120;-0.200;2022-12-18T08:48:12;35.08;;;19.00;;
35909;SDS011;22004;49.120;-0.200;2022-12-18T08:50:37;31.75;;;17.55;;
35909;SDS011;22004;49.120;-0.200;2022-12-18T08:53:03;31.88;;;17.25;;
35909;SDS011;22004;49.120;-0.200;2022-12-18T08:55:28;35.58;;;18.88;;
35909;SDS011;22004;49.120;-0.200;2022-12-18T08:57:54;30.67;;;16.92;;
35909;SDS011;22004;49.120;-0.200;2022-12-18T09:00:19;37.17;;;19.70;;
35909;SDS011;22004;49.120;-0.200;2022-12-18T09:02:45;34.25;;;18.92;;
35909;SDS011;22004;49.120;-0.200;2022-12-18T09:05:10;33.20;;;18.38;;
35909;SDS011;22004;49.120;-0.200;2022-12-18T09:07:35;34.30;;;19.23;;
35909;SDS011;22004;49.120;-0.200;2022-12-18T09:10:01;31.35;;;17.05;;
35909;SDS011;22004;49.120;-0.200;2022-12-18T09:12:26;29.27;;;17.15;;
35909;SDS011;22004;49.120;-0.200;2022-12-18T09:14:52;37.65;;;18.85;;
35909;SDS011;22004;49.120;-0.200;2022-12-18T09:17:17;35.55;;;19.13;;
35909;SDS011;22004;49.120;-0.200;2022-12-18T09:19:42;37.03;;;21.38;;
35909;SDS011;22004;49.120;-0.200;2022-12-18T09:22:08;34.63;;;19.60;;
35909;SDS011;22004;49.120;-0.200;2022-12-18T09:24:34;38.60;;;22.23;;
35909;SDS011;22004;49.120;-0.200;2022-12-18T09:27:00;33.25;;;17.70;;
35909;SDS011;22004;49.120;-0.200;2022-12-18T09:29:25;31.15;;;17.58;;
35909;SDS011;22004;49.120;-0.200;2022-12-18T09:31:51;34.28;;;18.80;;
35909;SDS011;22004;49.120;-0.200;2022-12-18T09:34:16;36.70;;;19.45;;
35909;SDS011;22004;49.120;-0.200;2022-12-18T09:36:41;37.80;;;19.80;;
35909;SDS011;22004;49.120;-0.200;2022-12-18T09:39:07;34.65;;;18.23;;
35909;SDS011;22004;49.120;-0.200;2022-12-18T09:41:39;34.13;;;18.85;;
35909;SDS011;22004;49.120;-0.200;2022-12-18T09:49:30;33.80;;;18.13;;
35909;SDS011;22004;49.120;-0.200;2022-12-18T09:52:02;39.58;;;21.08;;
35909;SDS011;22004;49.120;-0.200;2022-12-18T09:54:33;33.38;;;18.17;;
35909;SDS011;22004;49.120;-0.200;2022-12-18T09:57:03;29.75;;;17.33;;
35909;SDS011;22004;49.120;-0.200;2022-12-18T09:59:34;35.95;;;19.17;;
35909;SDS011;22004;49.120;-0.200;2022-12-18T10:02:11;43.47;;;19.55;;
35909;SDS011;22004;49.120;-0.200;2022-12-18T10:04:39;31.65;;;18.00;;
35909;SDS011;22004;49.120;-0.200;2022-12-18T10:07:08;34.78;;;20.02;;
35909;SDS011;22004;49.120;-0.200;2022-12-18T10:09:59;35.40;;;18.83;;
35909;SDS011;22004;49.120;-0.200;2022-12-18T10:12:34;31.45;;;17.20;;
35909;SDS011;22004;49.120;-0.200;2022-12-18T10:15:17;35.00;;;18.88;;
35909;SDS011;22004;49.120;-0.200;2022-12-18T10:18:05;31.60;;;16.70;;
35909;SDS011;22004;49.120;-0.200;2022-12-18T10:20:49;37.78;;;18.50;;
35909;SDS011;22004;49.120;-0.200;2022-12-18T10:26:25;38.15;;;18.27;;
35909;SDS011;22004;49.120;-0.200;2022-12-18T10:28:50;35.05;;;19.17;;
35909;SDS011;22004;49.120;-0.200;2022-12-18T10:31:17;31.00;;;17.05;;
35909;SDS011;22004;49.120;-0.200;2022-12-18T10:33:44;42.38;;;19.77;;
35909;SDS011;22004;49.120;-0.200;2022-12-18T10:36:09;31.48;;;17.67;;
35909;SDS011;22004;49.120;-0.200;2022-12-18T10:38:35;33.78;;;17.80;;
35909;SDS011;22004;49.120;-0.200;2022-12-18T10:43:47;34.13;;;18.25;;
35909;SDS011;22004;49.120;-0.200;2022-12-18T10:46:16;31.70;;;18.52;;
35909;SDS011;22004;49.120;-0.200;2022-12-18T10:51:23;32.70;;;18.05;;
35909;SDS011;22004;49.120;-0.200;2022-12-18T10:56:19;34.58;;;18.55;;
35909;SDS011;22004;49.120;-0.200;2022-12-18T10:58:55;31.35;;;16.98;;
35909;SDS011;22004;49.120;-0.200;2022-12-18T11:01:25;34.97;;;19.45;;
35909;SDS011;22004;49.120;-0.200;2022-12-18T11:06:21;47.03;;;25.52;;
35909;SDS011;22004;49.120;-0.200;2022-12-18T11:08:59;43.88;;;21.63;;
35909;SDS011;22004;49.120;-0.200;2022-12-18T11:11:29;55.50;;;26.63;;
35909;SDS011;22004;49.120;-0.200;2022-12-18T11:13:57;70.07;;;30.83;;
35909;SDS011;22004;49.120;-0.200;2022-12-18T11:16:27;82.07;;;32.70;;
35909;SDS011;22004;49.120;-0.200;2022-12-18T11:18:55;47.90;;;20.95;;
35909;SDS011;22004;49.120;-0.200;2022-12-18T11:21:39;43.17;;;20.45;;
35909;SDS011;22004;49.120;-0.200;2022-12-18T11:24:07;63.90;;;27.67;;
35909;SDS011;22004;49.120;-0.200;2022-12-18T11:26:44;62.25;;;30.02;;
35909;SDS011;22004;49.120;-0.200;2022-12-18T11:29:10;80.53;;;38.03;;
35909;SDS011;22004;49.120;-0.200;2022-12-18T11:31:42;59.28;;;28.63;;
35909;SDS011;22004;49.120;-0.200;2022-12-18T11:36:53;38.90;;;19.38;;
35909;SDS011;22004;49.120;-0.200;2022-12-18T11:39:21;37.40;;;19.38;;
35909;SDS011;22004;49.120;-0.200;2022-12-18T11:41:56;70.93;;;33.75;;
35909;SDS011;22004;49.120;-0.200;2022-12-18T11:50:17;54.70;;;25.52;;
35909;SDS011;22004;49.120;-0.200;2022-12-18T11:52:47;45.25;;;24.73;;
35909;SDS011;22004;49.120;-0.200;2022-12-18T11:55:14;41.00;;;21.95;;
35909;SDS011;22004;49.120;-0.200;2022-12-18T11:58:24;50.03;;;20.25;;
35909;SDS011;22004;49.120;-0.200;2022-12-18T12:01:03;42.65;;;19.05;;
35909;SDS011;22004;49.120;-0.200;2022-12-18T12:06:33;41.60;;;20.90;;
35909;SDS011;22004;49.120;-0.200;2022-12-18T12:11:51;49.90;;;26.67;;
35909;SDS011;22004;49.120;-0.200;2022-12-18T12:17:24;47.78;;;28.70;;
35909;SDS011;22004;49.120;-0.200;2022-12-18T12:19:58;37.17;;;19.70;;
35909;SDS011;22004;49.120;-0.200;2022-12-18T12:30:27;38.45;;;20.67;;
35909;SDS011;22004;49.120;-0.200;2022-12-18T12:38:37;47.80;;;24.98;;
35909;SDS011;22004;49.120;-0.200;2022-12-18T12:41:09;44.15;;;24.20;;
35909;SDS011;22004;49.120;-0.200;2022-12-18T12:43:56;40.60;;;21.23;;
35909;SDS011;22004;49.120;-0.200;2022-12-18T12:46:23;46.88;;;24.73;;
35909;SDS011;22004;49.120;-0.200;2022-12-18T12:48:52;52.00;;;26.73;;
35909;SDS011;22004;49.120;-0.200;2022-12-18T12:51:39;52.88;;;28.52;;
35909;SDS011;22004;49.120;-0.200;2022-12-18T12:54:11;41.72;;;22.25;;
35909;SDS011;22004;49.120;-0.200;2022-12-18T12:56:52;35.03;;;20.02;;
35909;SDS011;22004;49.120;-0.200;2022-12-18T13:01:58;36.10;;;20.20;;
35909;SDS011;22004;49.120;-0.200;2022-12-18T13:04:34;40.00;;;20.02;;
35909;SDS011;22004;49.120;-0.200;2022-12-18T13:13:09;46.38;;;25.05;;
35909;SDS011;22004;49.120;-0.200;2022-12-18T13:18:04;35.95;;;19.00;;
35909;SDS011;22004;49.120;-0.200;2022-12-18T13:20:39;36.35;;;20.08;;
35909;SDS011;22004;49.120;-0.200;2022-12-18T13:23:28;38.05;;;21.70;;
35909;SDS011;22004;49.120;-0.200;2022-12-18T13:25:55;35.22;;;19.15;;
35909;SDS011;22004;49.120;-0.200;2022-12-18T13:28:21;34.70;;;20.45;;
35909;SDS011;22004;49.120;-0.200;2022-12-18T13:31:06;38.53;;;20.90;;
35909;SDS011;22004;49.120;-0.200;2022-12-18T13:38:38;35.17;;;19.77;;
35909;SDS011;22004;49.120;-0.200;2022-12-18T13:43:33;39.00;;;20.63;;
35909;SDS011;22004;49.120;-0.200;2022-12-18T13:51:52;40.72;;;21.48;;
35909;SDS011;22004;49.120;-0.200;2022-12-18T13:56:49;44.83;;;21.80;;
35909;SDS011;22004;49.120;-0.200;2022-12-18T14:01:47;35.97;;;19.73;;
35909;SDS011;22004;49.120;-0.200;2022-12-18T14:04:18;38.10;;;21.80;;
35909;SDS011;22004;49.120;-0.200;2022-12-18T14:06:47;35.00;;;19.42;;
35909;SDS011;22004;49.120;-0.200;2022-12-18T14:09:17;40.00;;;21.75;;
35909;SDS011;22004;49.120;-0.200;2022-12-18T14:11:49;36.53;;;19.80;;
35909;SDS011;22004;49.120;-0.200;2022-12-18T14:14:18;38.80;;;20.35;;
35909;SDS011;22004;49.120;-0.200;2022-12-18T14:16:45;33.45;;;19.15;;
35909;SDS011;22004;49.120;-0.200;2022-12-18T14:19:13;32.85;;;17.08;;
35909;SDS011;22004;49.120;-0.200;2022-12-18T14:21:46;37.33;;;18.08;;
35909;SDS011;22004;49.120;-0.200;2022-12-18T14:26:47;34.47;;;19.05;;
35909;SDS011;22004;49.120;-0.200;2022-12-18T14:29:34;30.48;;;17.67;;
35909;SDS011;22004;49.120;-0.200;2022-12-18T14:32:06;33.83;;;19.48;;
35909;SDS011;22004;49.120;-0.200;2022-12-18T14:34:42;29.33;;;17.15;;
35909;SDS011;22004;49.120;-0.200;2022-12-18T14:37:11;32.55;;;19.08;;
35909;SDS011;22004;49.120;-0.200;2022-12-18T14:39:38;34.20;;;17.70;;
35909;SDS011;22004;49.120;-0.200;2022-12-18T14:42:03;31.95;;;18.27;;
35909;SDS011;22004;49.120;-0.200;2022-12-18T14:44:29;35.60;;;20.60;;
35909;SDS011;22004;49.120;-0.200;2022-12-18T14:46:54;35.97;;;19.35;;
35909;SDS011;22004;49.120;-0.200;2022-12-18T14:52:03;29.58;;;16.27;;
35909;SDS011;22004;49.120;-0.200;2022-12-18T14:54:31;26.17;;;15.52;;
35909;SDS011;22004;49.120;-0.200;2022-12-18T14:57:17;27.85;;;16.25;;
35909;SDS011;22004;49.120;-0.200;2022-12-18T14:59:55;35.63;;;20.13;;
35909;SDS011;22004;49.120;-0.200;2022-12-18T15:02:31;24.83;;;15.45;;
35909;SDS011;22004;49.120;-0.200;2022-12-18T15:05:01;33.45;;;18.55;;
35909;SDS011;22004;49.120;-0.200;2022-12-18T15:07:51;32.33;;;18.63;;
35909;SDS011;22004;49.120;-0.200;2022-12-18T15:20:32;31.02;;;17.90;;
35909;SDS011;22004;49.120;-0.200;2022-12-18T15:26:23;34.10;;;17.38;;
35909;SDS011;22004;49.120;-0.200;2022-12-18T15:28:49;29.40;;;17.50;;
35909;SDS011;22004;49.120;-0.200;2022-12-18T15:36:18;28.35;;;17.13;;
35909;SDS011;22004;49.120;-0.200;2022-12-18T15:38:46;28.02;;;16.27;;
35909;SDS011;22004;49.120;-0.200;2022-12-18T15:41:15;26.30;;;15.80;;
35909;SDS011;22004;49.120;-0.200;2022-12-18T15:43:45;27.55;;;15.48;;
35909;SDS011;22004;49.120;-0.200;2022-12-18T15:46:13;28.15;;;16.33;;
35909;SDS011;22004;49.120;-0.200;2022-12-18T15:48:41;32.80;;;19.02;;
35909;SDS011;22004;49.120;-0.200;2022-12-18T15:53:39;24.30;;;15.68;;
35909;SDS011;22004;49.120;-0.200;2022-12-18T15:56:04;29.33;;;17.05;;
35909;SDS011;22004;49.120;-0.200;2022-12-18T15:58:54;29.13;;;17.17;;
35909;SDS011;22004;49.120;-0.200;2022-12-18T16:01:20;27.55;;;16.08;;
35909;SDS011;22004;49.120;-0.200;2022-12-18T16:03:46;29.45;;;16.23;;
35909;SDS011;22004;49.120;-0.200;2022-12-18T16:06:12;31.77;;;17.33;;
35909;SDS011;22004;49.120;-0.200;2022-12-18T16:08:37;32.72;;;17.13;;
35909;SDS011;22004;49.120;-0.200;2022-12-18T16:11:02;26.42;;;14.57;;
35909;SDS011;22004;49.120;-0.200;2022-12-18T16:13:28;27.90;;;15.75;;
35909;SDS011;22004;49.120;-0.200;2022-12-18T16:15:53;23.35;;;13.23;;
35909;SDS011;22004;49.120;-0.200;2022-12-18T16:18:19;23.35;;;13.55;;
35909;SDS011;22004;49.120;-0.200;2022-12-18T16:20:44;20.92;;;13.05;;
35909;SDS011;22004;49.120;-0.200;2022-12-18T16:23:10;20.25;;;12.27;;
35909;SDS011;22004;49.120;-0.200;2022-12-18T16:25:35;20.73;;;12.27;;